createdAt,value
2022-10-26T00:02:26.354Z,10.80
2022-10-26T00:04:54.689Z,10.90
2022-10-26T00:07:22.930Z,10.90
2022-10-26T00:09:51.327Z,10.90
2022-10-26T00:12:19.670Z,10.90
2022-10-26T00:14:47.899Z,10.90
2022-10-26T00:17:16.328Z,10.90
2022-10-26T00:19:46.101Z,10.80
2022-10-26T00:22:14.301Z,10.80
2022-10-26T00:24:42.633Z,10.70
2022-10-26T00:27:11.023Z,10.70
2022-10-26T00:29:39.301Z,10.70
2022-10-26T00:32:08.018Z,10.70
2022-10-26T00:34:36.270Z,10.70
2022-10-26T00:37:05.940Z,10.70
2022-10-26T00:39:34.271Z,10.70
2022-10-26T00:42:02.491Z,10.70
2022-10-26T00:44:54.459Z,10.70
2022-10-26T00:47:26.003Z,10.70
2022-10-26T00:49:56.359Z,10.70
2022-10-26T00:52:26.358Z,10.60
2022-10-26T00:54:55.399Z,10.60
2022-10-26T00:57:23.872Z,10.60
2022-10-26T00:59:52.879Z,10.60
2022-10-26T01:02:21.312Z,10.60
2022-10-26T01:04:49.999Z,10.60
2022-10-26T01:07:18.477Z,10.60
2022-10-26T01:09:48.239Z,10.50
2022-10-26T01:12:16.549Z,10.50
2022-10-26T01:14:45.042Z,10.50
2022-10-26T01:17:21.420Z,10.50
2022-10-26T01:20:00.343Z,10.60
2022-10-26T01:22:31.194Z,10.60
2022-10-26T01:25:10.231Z,10.50
2022-10-26T01:27:39.881Z,10.50
2022-10-26T01:30:15.339Z,10.50
2022-10-26T01:32:47.499Z,10.60
2022-10-26T01:35:17.744Z,10.60
2022-10-26T01:37:48.514Z,10.60
2022-10-26T01:40:19.998Z,10.60
2022-10-26T01:42:50.070Z,10.50
2022-10-26T01:45:20.130Z,10.50
2022-10-26T01:47:49.354Z,10.40
2022-10-26T01:50:19.019Z,10.40
2022-10-26T01:52:50.219Z,10.40
2022-10-26T01:55:37.109Z,10.40
2022-10-26T01:58:11.910Z,10.50
2022-10-26T02:00:47.680Z,10.50
2022-10-26T02:03:19.803Z,10.40
2022-10-26T02:05:56.098Z,10.40
2022-10-26T02:08:42.598Z,10.40
2022-10-26T02:11:19.239Z,10.40
2022-10-26T02:13:49.537Z,10.40
2022-10-26T02:16:24.441Z,10.40
2022-10-26T02:18:54.386Z,10.40
2022-10-26T02:21:24.099Z,10.40
2022-10-26T02:23:53.353Z,10.40
2022-10-26T02:26:23.578Z,10.40
2022-10-26T02:28:52.799Z,10.40
2022-10-26T02:31:22.551Z,10.40
2022-10-26T02:33:52.058Z,10.40
2022-10-26T02:36:22.089Z,10.30
2022-10-26T02:38:51.178Z,10.30
2022-10-26T02:41:19.739Z,10.40
2022-10-26T02:43:54.329Z,10.40
2022-10-26T02:46:25.657Z,10.40
2022-10-26T02:48:54.009Z,10.40
2022-10-26T02:51:26.480Z,10.40
2022-10-26T02:53:57.637Z,10.40
2022-10-26T02:56:28.397Z,10.40
2022-10-26T02:58:58.161Z,10.30
2022-10-26T03:01:29.082Z,10.20
2022-10-26T03:03:58.656Z,10.30
2022-10-26T03:06:27.029Z,10.30
2022-10-26T03:08:56.328Z,10.20
2022-10-26T03:11:25.019Z,10.30
2022-10-26T03:13:53.279Z,10.30
2022-10-26T03:16:21.654Z,10.30
2022-10-26T03:18:51.459Z,10.30
2022-10-26T03:21:19.708Z,10.40
2022-10-26T03:23:48.969Z,10.30
2022-10-26T03:26:19.549Z,10.30
2022-10-26T03:28:47.831Z,10.30
2022-10-26T03:31:16.072Z,10.30
2022-10-26T03:33:44.488Z,10.30
2022-10-26T03:36:14.169Z,10.30
2022-10-26T03:38:42.435Z,10.30
2022-10-26T03:41:10.708Z,10.20
2022-10-26T03:43:38.950Z,10.30
2022-10-26T03:46:07.320Z,10.20
2022-10-26T03:48:35.639Z,10.20
2022-10-26T03:51:03.879Z,10.20
2022-10-26T03:53:33.682Z,10.20
2022-10-26T03:56:02.029Z,10.20
2022-10-26T03:58:30.265Z,10.20
2022-10-26T04:00:58.555Z,10.30
2022-10-26T04:03:26.866Z,10.30
2022-10-26T04:05:55.116Z,10.30
2022-10-26T04:08:23.376Z,10.30
2022-10-26T04:10:53.107Z,10.20
2022-10-26T04:13:21.530Z,10.20
2022-10-26T04:15:50.518Z,10.20
2022-10-26T04:18:19.086Z,10.20
2022-10-26T04:20:47.325Z,10.20
2022-10-26T04:23:16.559Z,10.20
2022-10-26T04:25:45.285Z,10.10
2022-10-26T04:28:15.367Z,10.20
2022-10-26T04:30:43.617Z,10.20
2022-10-26T04:33:11.885Z,10.20
2022-10-26T04:35:40.167Z,10.20
2022-10-26T04:38:08.596Z,10.20
2022-10-26T04:40:36.929Z,10.20
2022-10-26T04:43:05.196Z,10.20
2022-10-26T04:45:35.113Z,10.10
2022-10-26T04:48:04.329Z,10.10
2022-10-26T04:50:32.636Z,10.10
2022-10-26T04:53:00.887Z,10.10
2022-10-26T04:55:29.155Z,10.20
2022-10-26T04:58:00.282Z,10.20
2022-10-26T05:00:30.425Z,10.20
2022-10-26T05:03:01.903Z,10.20
2022-10-26T05:05:30.184Z,10.20
2022-10-26T05:07:58.523Z,10.20
2022-10-26T05:10:27.175Z,10.20
2022-10-26T05:12:55.825Z,10.20
2022-10-26T05:15:24.365Z,10.20
2022-10-26T05:17:56.397Z,10.20
2022-10-26T05:20:30.326Z,10.20
2022-10-26T05:22:59.028Z,10.20
2022-10-26T05:25:27.358Z,10.30
2022-10-26T05:27:58.775Z,10.30
2022-10-26T05:30:27.077Z,10.30
2022-10-26T05:32:55.855Z,10.30
2022-10-26T05:35:26.066Z,10.30
2022-10-26T05:37:54.408Z,10.30
2022-10-26T05:40:22.873Z,10.40
2022-10-26T05:42:51.600Z,10.40
2022-10-26T05:45:20.292Z,10.40
2022-10-26T05:47:48.924Z,10.50
2022-10-26T05:50:17.466Z,10.50
2022-10-26T05:52:47.795Z,10.50
2022-10-26T05:55:16.998Z,10.60
2022-10-26T05:57:45.747Z,10.60
2022-10-26T06:00:17.702Z,10.70
2022-10-26T06:02:51.086Z,10.70
2022-10-26T06:05:22.087Z,10.70
2022-10-26T06:07:52.406Z,10.70
2022-10-26T06:10:21.269Z,10.80
2022-10-26T06:12:50.039Z,10.80
2022-10-26T06:15:20.666Z,10.90
2022-10-26T06:17:55.945Z,10.90
2022-10-26T06:20:29.298Z,10.90
2022-10-26T06:23:04.557Z,11.00
2022-10-26T06:25:36.995Z,11.00
2022-10-26T06:28:08.848Z,11.10
2022-10-26T06:30:37.222Z,11.10
2022-10-26T06:33:29.006Z,11.10
2022-10-26T06:36:03.406Z,11.10
2022-10-26T06:38:34.618Z,11.10
2022-10-26T06:41:05.877Z,11.20
2022-10-26T06:43:35.586Z,11.20
2022-10-26T06:46:07.845Z,11.30
2022-10-26T06:48:45.876Z,11.30
2022-10-26T06:51:16.726Z,11.40
2022-10-26T06:53:51.894Z,11.30
2022-10-26T06:56:21.366Z,11.30
2022-10-26T06:58:52.676Z,11.40
2022-10-26T07:01:21.591Z,11.40
2022-10-26T07:03:50.946Z,11.40
2022-10-26T07:06:20.653Z,11.40
2022-10-26T07:08:50.896Z,11.40
2022-10-26T07:11:19.157Z,11.50
2022-10-26T07:13:47.487Z,11.50
2022-10-26T07:16:15.767Z,11.50
2022-10-26T07:18:44.116Z,11.50
2022-10-26T07:21:13.045Z,11.60
2022-10-26T07:23:41.486Z,11.60
2022-10-26T07:26:11.295Z,11.70
2022-10-26T07:28:39.916Z,11.80
2022-10-26T07:31:08.183Z,11.80
2022-10-26T07:33:39.386Z,11.90
2022-10-26T07:36:11.217Z,12.10
2022-10-26T07:38:39.776Z,12.20
2022-10-26T07:41:08.166Z,12.40
2022-10-26T07:43:37.886Z,12.50
2022-10-26T07:46:06.238Z,12.60
2022-10-26T07:48:35.574Z,12.70
2022-10-26T07:51:03.955Z,12.60
2022-10-26T07:53:32.326Z,12.60
2022-10-26T07:56:00.665Z,12.60
2022-10-26T07:58:29.075Z,12.60
2022-10-26T08:00:58.885Z,12.70
2022-10-26T08:03:27.165Z,12.70
2022-10-26T08:05:56.256Z,12.70
2022-10-26T08:08:24.698Z,12.80
2022-10-26T08:10:53.026Z,12.80
2022-10-26T08:13:21.536Z,13.00
2022-10-26T08:15:49.846Z,13.10
2022-10-26T08:18:19.512Z,13.30
2022-10-26T08:20:47.846Z,13.30
2022-10-26T08:23:16.145Z,13.40
2022-10-26T08:25:44.385Z,13.50
2022-10-26T08:28:12.709Z,13.60
2022-10-26T08:30:41.008Z,13.60
2022-10-26T08:33:09.565Z,13.60
2022-10-26T08:35:39.555Z,13.60
2022-10-26T08:38:07.918Z,13.70
2022-10-26T08:40:38.236Z,13.50
2022-10-26T08:43:09.597Z,13.40
2022-10-26T08:45:40.166Z,13.50
2022-10-26T08:48:13.553Z,13.40
2022-10-26T08:50:46.795Z,13.40
2022-10-26T08:53:17.546Z,13.40
2022-10-26T08:55:47.853Z,13.30
2022-10-26T08:58:17.745Z,13.20
2022-10-26T09:00:47.673Z,13.20
2022-10-26T09:03:16.537Z,13.20
2022-10-26T09:05:53.015Z,13.30
2022-10-26T09:08:25.685Z,13.30
2022-10-26T09:11:00.407Z,13.50
2022-10-26T09:13:33.717Z,13.80
2022-10-26T09:16:05.527Z,14.00
2022-10-26T09:18:41.247Z,14.30
2022-10-26T09:21:16.836Z,14.50
2022-10-26T09:23:51.516Z,14.70
2022-10-26T09:26:25.441Z,14.80
2022-10-26T09:28:54.044Z,15.00
2022-10-26T09:31:22.709Z,15.20
2022-10-26T09:33:51.356Z,15.30
2022-10-26T09:36:22.458Z,15.40
2022-10-26T09:38:53.037Z,15.50
2022-10-26T09:41:28.285Z,15.60
2022-10-26T09:44:05.066Z,15.70
2022-10-26T09:46:35.386Z,15.70
2022-10-26T09:49:07.098Z,15.80
2022-10-26T09:51:37.987Z,15.80
2022-10-26T09:54:07.125Z,15.80
2022-10-26T09:56:38.158Z,15.90
2022-10-26T09:59:07.605Z,15.90
2022-10-26T10:01:40.082Z,15.80
2022-10-26T10:04:12.319Z,15.90
2022-10-26T10:06:42.267Z,16.00
2022-10-26T10:09:12.817Z,16.00
2022-10-26T10:11:41.666Z,16.10
2022-10-26T10:14:10.645Z,16.20
2022-10-26T10:16:39.456Z,16.20
2022-10-26T10:19:07.946Z,16.20
2022-10-26T10:21:37.135Z,16.20
2022-10-26T10:24:23.054Z,16.30
2022-10-26T10:26:57.985Z,16.50
2022-10-26T10:29:27.025Z,16.60
2022-10-26T10:32:01.699Z,16.60
2022-10-26T10:34:36.305Z,16.70
2022-10-26T10:37:05.545Z,16.80
2022-10-26T10:39:42.786Z,16.80
2022-10-26T10:42:19.211Z,16.80
2022-10-26T10:44:50.716Z,16.80
2022-10-26T10:47:24.310Z,16.80
2022-10-26T10:49:53.960Z,16.80
2022-10-26T10:52:28.185Z,16.80
2022-10-26T10:55:02.712Z,16.80
2022-10-26T10:57:33.685Z,16.80
2022-10-26T11:00:04.508Z,16.70
2022-10-26T11:02:45.846Z,16.80
2022-10-26T11:05:27.551Z,16.90
2022-10-26T11:07:59.086Z,16.90
2022-10-26T11:10:31.475Z,17.00
2022-10-26T11:13:00.926Z,17.10
2022-10-26T11:15:31.466Z,17.20
2022-10-26T11:18:04.687Z,17.30
2022-10-26T11:20:34.455Z,17.40
2022-10-26T11:25:43.345Z,17.60
2022-10-26T11:28:15.086Z,17.70
2022-10-26T11:30:45.735Z,17.60
2022-10-26T11:33:17.446Z,17.50
2022-10-26T11:35:47.286Z,17.50
2022-10-26T11:38:27.958Z,17.50
2022-10-26T11:41:14.675Z,17.50
2022-10-26T11:43:45.008Z,17.50
2022-10-26T11:46:18.140Z,17.50
2022-10-26T11:48:50.558Z,17.50
2022-10-26T11:51:21.785Z,17.50
2022-10-26T11:53:50.674Z,17.50
2022-10-26T11:56:25.090Z,17.50
2022-10-26T11:58:53.914Z,17.60
2022-10-26T12:01:22.967Z,17.60
2022-10-26T12:03:53.927Z,17.60
2022-10-26T12:06:23.516Z,17.60
2022-10-26T12:08:55.954Z,17.60
2022-10-26T12:11:38.368Z,17.70
2022-10-26T12:14:14.591Z,17.60
2022-10-26T12:16:49.931Z,17.70
2022-10-26T12:19:24.997Z,17.60
2022-10-26T12:21:54.166Z,17.70
2022-10-26T12:24:30.276Z,17.60
2022-10-26T12:27:00.827Z,17.60
2022-10-26T12:29:37.434Z,17.60
2022-10-26T12:32:06.947Z,17.60
2022-10-26T12:34:56.216Z,17.60
2022-10-26T12:37:31.645Z,17.50
2022-10-26T12:40:15.525Z,17.50
2022-10-26T12:42:45.216Z,17.50
2022-10-26T12:45:22.505Z,17.50
2022-10-26T12:48:10.788Z,17.50
2022-10-26T12:50:49.427Z,17.50
2022-10-26T12:53:19.088Z,17.50
2022-10-26T12:56:03.736Z,17.50
2022-10-26T12:58:55.146Z,17.60
2022-10-26T13:01:42.284Z,17.60
2022-10-26T13:04:22.059Z,17.60
2022-10-26T13:07:01.026Z,17.80
2022-10-26T13:09:33.239Z,17.80
2022-10-26T13:12:04.625Z,17.80
2022-10-26T13:14:38.396Z,17.90
2022-10-26T13:17:23.634Z,17.90
2022-10-26T13:20:18.705Z,18.00
2022-10-26T13:23:08.666Z,18.10
2022-10-26T13:25:37.617Z,18.00
2022-10-26T13:28:47.043Z,17.90
2022-10-26T13:31:34.877Z,17.90
2022-10-26T13:34:39.428Z,17.70
2022-10-26T13:37:20.769Z,17.70
2022-10-26T13:39:56.004Z,17.60
2022-10-26T13:42:26.604Z,17.60
2022-10-26T13:44:57.719Z,17.60
2022-10-26T13:47:29.901Z,17.50
2022-10-26T13:50:03.559Z,17.50
2022-10-26T13:52:36.620Z,17.30
2022-10-26T13:55:09.812Z,17.50
2022-10-26T13:57:40.606Z,17.50
2022-10-26T14:00:10.600Z,17.50
2022-10-26T14:02:59.962Z,17.40
2022-10-26T14:05:28.979Z,17.40
2022-10-26T14:07:59.989Z,17.30
2022-10-26T14:10:30.868Z,17.20
2022-10-26T14:12:59.899Z,17.20
2022-10-26T14:15:30.490Z,17.20
2022-10-26T14:18:00.359Z,17.10
2022-10-26T14:20:30.430Z,17.10
2022-10-26T14:23:00.829Z,17.10
2022-10-26T14:25:42.065Z,17.00
2022-10-26T14:28:23.426Z,17.00
2022-10-26T14:30:54.329Z,17.00
2022-10-26T14:33:27.853Z,17.00
2022-10-26T14:35:57.568Z,17.00
2022-10-26T14:38:31.305Z,17.00
2022-10-26T14:40:59.997Z,17.00
2022-10-26T14:43:29.080Z,17.10
2022-10-26T14:45:57.748Z,17.10
2022-10-26T14:48:30.189Z,17.10
2022-10-26T14:51:00.411Z,17.10
2022-10-26T14:53:47.282Z,17.10
2022-10-26T14:56:37.129Z,17.10
2022-10-26T14:59:14.499Z,17.00
2022-10-26T15:01:51.268Z,16.90
2022-10-26T15:04:38.108Z,16.80
2022-10-26T15:07:11.623Z,16.90
2022-10-26T15:09:41.339Z,16.80
2022-10-26T15:12:19.630Z,16.80
2022-10-26T15:14:50.969Z,16.40
2022-10-26T15:17:22.730Z,16.60
2022-10-26T15:19:51.880Z,16.60
2022-10-26T15:22:25.310Z,16.60
2022-10-26T15:24:59.890Z,16.50
2022-10-26T15:27:31.343Z,16.50
2022-10-26T15:30:18.967Z,16.40
2022-10-26T15:32:49.473Z,16.40
2022-10-26T15:35:29.512Z,16.30
2022-10-26T15:37:58.666Z,16.30
2022-10-26T15:40:29.434Z,16.30
2022-10-26T15:43:00.424Z,16.30
2022-10-26T15:45:30.429Z,16.30
2022-10-26T15:48:03.538Z,16.20
2022-10-26T15:50:31.980Z,16.30
2022-10-26T15:53:01.887Z,16.30
2022-10-26T15:55:30.949Z,16.20
2022-10-26T15:57:59.379Z,16.20
2022-10-26T16:00:27.910Z,16.10
2022-10-26T16:02:56.279Z,16.10
2022-10-26T16:05:26.427Z,16.10
2022-10-26T16:07:54.849Z,16.00
2022-10-26T16:10:25.048Z,16.00
2022-10-26T16:12:53.820Z,16.00
2022-10-26T16:15:23.200Z,16.00
2022-10-26T16:17:52.464Z,16.00
2022-10-26T16:20:23.042Z,16.00
2022-10-26T16:22:53.880Z,15.90
2022-10-26T16:25:23.513Z,15.90
2022-10-26T16:27:52.121Z,15.90
2022-10-26T16:30:21.313Z,15.90
2022-10-26T16:32:50.479Z,16.00
2022-10-26T16:35:19.091Z,15.90
2022-10-26T16:37:47.740Z,15.90
2022-10-26T16:40:18.772Z,15.90
2022-10-26T16:42:47.307Z,15.90
2022-10-26T16:45:16.511Z,15.80
2022-10-26T16:47:44.884Z,15.90
2022-10-26T16:50:14.682Z,15.80
2022-10-26T16:52:43.302Z,15.80
2022-10-26T16:55:11.782Z,15.80
2022-10-26T16:57:41.871Z,15.70
2022-10-26T17:00:10.982Z,15.60
2022-10-26T17:02:39.789Z,15.60
2022-10-26T17:05:09.793Z,15.50
2022-10-26T17:07:38.313Z,15.50
2022-10-26T17:10:07.271Z,15.40
2022-10-26T17:12:35.636Z,15.40
2022-10-26T17:15:05.754Z,15.30
2022-10-26T17:17:35.262Z,15.30
2022-10-26T17:20:03.871Z,15.20
2022-10-26T17:22:32.420Z,15.20
2022-10-26T17:25:00.953Z,15.20
2022-10-26T17:27:29.386Z,15.20
2022-10-26T17:29:57.881Z,15.20
2022-10-26T17:32:28.801Z,15.10
2022-10-26T17:34:57.271Z,15.00
2022-10-26T17:37:25.807Z,15.00
2022-10-26T17:39:54.419Z,14.90
2022-10-26T17:42:22.951Z,14.90
2022-10-26T17:44:51.541Z,14.90
2022-10-26T17:47:20.942Z,15.00
2022-10-26T17:49:51.532Z,15.00
2022-10-26T17:52:20.031Z,15.00
2022-10-26T17:54:48.642Z,14.90
2022-10-26T17:57:17.161Z,15.00
2022-10-26T17:59:45.628Z,14.90
2022-10-26T18:02:14.181Z,14.90
2022-10-26T18:04:43.222Z,14.90
2022-10-26T18:07:17.015Z,14.90
2022-10-26T18:09:47.071Z,14.90
2022-10-26T18:12:16.673Z,14.80
2022-10-26T18:14:45.592Z,14.80
2022-10-26T18:17:14.071Z,14.80
2022-10-26T18:19:42.705Z,14.80
2022-10-26T18:22:11.102Z,14.80
2022-10-26T18:24:41.031Z,14.80
2022-10-26T18:27:09.321Z,14.80
2022-10-26T18:29:39.730Z,14.80
2022-10-26T18:32:08.481Z,14.80
2022-10-26T18:34:37.551Z,14.80
2022-10-26T18:37:06.113Z,14.80
2022-10-26T18:39:34.711Z,14.80
2022-10-26T18:42:04.611Z,14.80
2022-10-26T18:44:32.991Z,14.80
2022-10-26T18:47:01.424Z,14.70
2022-10-26T18:49:30.242Z,14.70
2022-10-26T18:51:59.462Z,14.60
2022-10-26T18:54:29.598Z,14.70
2022-10-26T18:56:59.997Z,14.70
2022-10-26T18:59:30.102Z,14.60
2022-10-26T19:01:59.109Z,14.60
2022-10-26T19:04:27.934Z,14.50
2022-10-26T19:06:56.743Z,14.50
2022-10-26T19:09:26.042Z,14.50
2022-10-26T19:11:54.502Z,14.50
2022-10-26T19:14:23.111Z,14.50
2022-10-26T19:16:53.567Z,14.30
2022-10-26T19:19:22.351Z,14.50
2022-10-26T19:21:51.941Z,14.40
2022-10-26T19:24:21.380Z,14.50
2022-10-26T19:26:51.682Z,14.40
2022-10-26T19:29:23.922Z,14.40
2022-10-26T19:31:55.121Z,14.30
2022-10-26T19:34:27.452Z,14.30
2022-10-26T19:36:55.963Z,14.30
2022-10-26T19:39:24.832Z,14.30
2022-10-26T19:41:54.264Z,14.30
2022-10-26T19:44:25.538Z,14.30
2022-10-26T19:46:59.643Z,14.20
2022-10-26T19:49:27.981Z,14.20
2022-10-26T19:51:58.162Z,14.20
2022-10-26T19:54:27.883Z,14.10
2022-10-26T19:56:56.473Z,14.10
2022-10-26T19:59:24.951Z,14.10
2022-10-26T20:01:53.383Z,14.10
2022-10-26T20:04:23.463Z,14.10
2022-10-26T20:06:51.802Z,14.00
2022-10-26T20:09:20.254Z,14.00
2022-10-26T20:11:51.913Z,14.00
2022-10-26T20:14:22.855Z,14.00
2022-10-26T20:16:51.431Z,14.00
2022-10-26T20:19:19.914Z,14.00
2022-10-26T20:21:49.882Z,14.00
2022-10-26T20:24:18.313Z,14.00
2022-10-26T20:26:46.684Z,13.90
2022-10-26T20:29:16.463Z,13.90
2022-10-26T20:31:45.037Z,13.90
2022-10-26T20:34:23.441Z,13.90
2022-10-26T20:36:53.431Z,13.90
2022-10-26T20:39:26.866Z,13.90
2022-10-26T20:41:55.562Z,13.80
2022-10-26T20:44:26.281Z,13.80
2022-10-26T20:46:57.766Z,13.80
2022-10-26T20:49:29.773Z,13.70
2022-10-26T20:52:20.148Z,13.70
2022-10-26T20:54:53.273Z,13.70
2022-10-26T20:57:27.282Z,13.70
2022-10-26T21:00:04.026Z,13.60
2022-10-26T21:02:37.321Z,13.60
2022-10-26T21:05:06.191Z,13.60
2022-10-26T21:07:38.562Z,13.60
2022-10-26T21:10:07.853Z,13.50
2022-10-26T21:12:41.491Z,13.50
2022-10-26T21:15:15.152Z,13.50
2022-10-26T21:17:44.132Z,13.40
2022-10-26T21:20:15.942Z,13.40
2022-10-26T21:22:46.502Z,13.40
2022-10-26T21:25:14.998Z,13.40
2022-10-26T21:27:43.511Z,13.40
2022-10-26T21:30:12.760Z,13.40
2022-10-26T21:32:43.051Z,13.40
2022-10-26T21:35:12.562Z,13.40
2022-10-26T21:37:41.901Z,13.30
2022-10-26T21:40:15.525Z,13.30
2022-10-26T21:42:43.984Z,13.30
2022-10-26T21:45:14.062Z,13.20
2022-10-26T21:47:42.430Z,13.20
2022-10-26T21:50:12.812Z,13.20
2022-10-26T21:52:50.116Z,13.20
2022-10-26T21:55:20.191Z,13.20
2022-10-26T21:57:53.548Z,13.20
2022-10-26T22:00:22.940Z,13.20
2022-10-26T22:02:51.597Z,13.20
2022-10-26T22:05:31.212Z,13.20
2022-10-26T22:08:00.088Z,13.20
2022-10-26T22:10:30.998Z,13.20
2022-10-26T22:13:00.401Z,13.20
2022-10-26T22:15:28.700Z,13.20
2022-10-26T22:18:02.102Z,13.10
2022-10-26T22:20:31.031Z,13.20
2022-10-26T22:22:59.518Z,13.20
2022-10-26T22:25:28.067Z,13.20
2022-10-26T22:28:02.442Z,13.20
2022-10-26T22:30:30.930Z,13.20
2022-10-26T22:32:59.530Z,13.20
2022-10-26T22:35:31.270Z,13.20
2022-10-26T22:37:59.622Z,13.10
2022-10-26T22:40:28.022Z,13.10
2022-10-26T22:42:57.966Z,13.10
2022-10-26T22:45:26.360Z,13.10
2022-10-26T22:47:54.873Z,13.10
2022-10-26T22:50:25.261Z,13.20
2022-10-26T22:52:56.400Z,13.10
2022-10-26T22:55:24.930Z,13.00
2022-10-26T22:57:55.720Z,13.00
2022-10-26T23:00:27.037Z,13.00
2022-10-26T23:02:57.294Z,13.00
2022-10-26T23:05:26.666Z,12.80
2022-10-26T23:07:55.194Z,13.00
2022-10-26T23:10:29.714Z,13.00
2022-10-26T23:12:58.161Z,13.00
2022-10-26T23:15:28.154Z,12.90
2022-10-26T23:17:58.574Z,13.00
2022-10-26T23:20:27.154Z,12.90
2022-10-26T23:22:56.615Z,12.90
2022-10-26T23:25:25.335Z,12.90
2022-10-26T23:27:53.727Z,12.90
2022-10-26T23:30:22.347Z,12.90
2022-10-26T23:32:56.174Z,12.90
2022-10-26T23:35:24.583Z,12.80
2022-10-26T23:37:52.877Z,12.80
2022-10-26T23:40:21.395Z,12.80
2022-10-26T23:42:50.741Z,12.80
2022-10-26T23:45:19.384Z,12.70
2022-10-26T23:47:48.363Z,12.90
2022-10-26T23:50:18.735Z,12.70
2022-10-26T23:52:48.275Z,12.80
2022-10-26T23:55:16.985Z,12.80
2022-10-26T23:57:45.724Z,12.80
